Time;durP1;ratioP1;P1;durP2;ratioP2;P2;SDS_P1;SDS_P2;PMS_P1;PMS_P2;Temp;Humidity;BMP_temperature;BMP_pressure;BME280_temperature;BME280_humidity;BME280_pressure;Samples;Min_cycle;Max_cycle;Signal;HPM_P1;HPM_P2
2023/06/23 00:00:29;;;;;;;37.55;17.42;;;;;;;15.60;100.00;101781.16;4855839;29;20517;-62
2023/06/23 00:02:54;;;;;;;38.03;17.30;;;;;;;15.58;100.00;101788.16;4856901;29;20048;-62
2023/06/23 00:05:20;;;;;;;37.17;16.98;;;;;;;15.54;100.00;101795.91;4856561;29;20085;-62
2023/06/23 00:07:46;;;;;;;35.67;17.25;;;;;;;15.45;100.00;101792.28;4853462;29;20033;-62
2023/06/23 00:10:12;;;;;;;35.45;17.98;;;;;;;15.43;100.00;101800.97;4855665;29;20119;-62
2023/06/23 00:12:41;;;;;;;35.60;17.52;;;;;;;15.38;100.00;101794.75;4855165;29;20034;-62
2023/06/23 00:15:12;;;;;;;31.60;16.70;;;;;;;15.35;100.00;101798.22;4855633;29;20040;-62
2023/06/23 00:17:38;;;;;;;37.47;17.30;;;;;;;15.36;100.00;101796.47;4854056;29;20061;-63
2023/06/23 00:20:14;;;;;;;39.20;18.27;;;;;;;15.32;100.00;101799.88;4854528;29;20035;-63
2023/06/23 00:22:41;;;;;;;37.58;17.98;;;;;;;15.32;100.00;101810.38;4854565;29;20044;-62
2023/06/23 00:25:10;;;;;;;38.75;18.60;;;;;;;15.30;100.00;101813.00;4856220;29;20124;-63
2023/06/23 00:27:40;;;;;;;37.22;18.00;;;;;;;15.28;100.00;101817.34;4854180;29;20482;-63
2023/06/23 00:30:06;;;;;;;;;;;;;;;15.27;100.00;101818.19;4856298;29;20543;-62
2023/06/23 00:32:32;;;;;;;40.40;19.10;;;;;;;15.25;100.00;101814.63;4855300;29;19971;-62
2023/06/23 00:34:57;;;;;;;44.30;19.42;;;;;;;15.22;100.00;101811.94;4855000;29;20026;-63
2023/06/23 00:37:23;;;;;;;43.15;19.73;;;;;;;15.23;100.00;101821.59;4853401;29;20088;-62
2023/06/23 00:39:48;;;;;;;41.80;21.23;;;;;;;15.22;100.00;101825.97;4855691;29;20045;-63
2023/06/23 00:42:13;;;;;;;40.60;20.80;;;;;;;15.20;100.00;101827.66;4856057;29;20149;-62
2023/06/23 00:44:39;;;;;;;46.05;21.55;;;;;;;15.22;100.00;101835.56;4855881;29;20140;-62
2023/06/23 00:47:04;;;;;;;48.25;22.42;;;;;;;15.18;100.00;101836.34;4854276;29;20413;-62
2023/06/23 00:49:30;;;;;;;45.92;20.52;;;;;;;15.15;100.00;101841.53;4853462;29;20041;-62
2023/06/23 00:51:57;;;;;;;44.83;21.88;;;;;;;15.15;100.00;101831.03;4855920;29;20037;-62
2023/06/23 00:54:23;;;;;;;47.80;22.00;;;;;;;15.12;100.00;101845.03;4854195;29;20030;-62
2023/06/23 00:56:49;;;;;;;55.25;24.23;;;;;;;15.12;100.00;101851.16;4854201;29;20082;-62
2023/06/23 00:59:15;;;;;;;49.60;23.65;;;;;;;15.08;100.00;101854.56;4855950;29;20040;-62
2023/06/23 01:01:40;;;;;;;52.28;24.17;;;;;;;15.11;100.00;101870.38;4856451;29;20032;-62
2023/06/23 01:04:08;;;;;;;52.28;23.75;;;;;;;15.09;100.00;101871.19;4855966;29;21293;-63
2023/06/23 01:06:46;;;;;;;49.95;24.48;;;;;;;15.10;100.00;101876.47;4856447;29;20323;-63
2023/06/23 01:09:42;;;;;;;57.20;25.73;;;;;;;15.10;100.00;101881.72;4856134;29;20124;-63
2023/06/23 01:12:28;;;;;;;56.85;24.65;;;;;;;15.07;100.00;101880.78;4856066;29;20290;-62
2023/06/23 01:15:04;;;;;;;54.92;25.20;;;;;;;15.02;100.00;101875.44;4856050;29;20097;-62
2023/06/23 01:17:44;;;;;;;56.17;25.45;;;;;;;15.01;100.00;101876.28;4855158;29;20489;-62
2023/06/23 01:20:21;;;;;;;58.95;26.70;;;;;;;15.00;100.00;101876.25;4855385;29;20088;-62
2023/06/23 01:23:07;;;;;;;59.92;27.25;;;;;;;14.98;100.00;101880.59;4856135;29;20039;-63
2023/06/23 01:25:48;;;;;;;57.90;26.92;;;;;;;15.03;100.00;101882.44;4854476;29;20041;-62
2023/06/23 01:28:51;;;;;;;64.20;29.20;;;;;;;14.99;100.00;101885.88;4855324;29;20401;-62
2023/06/23 01:31:36;;;;;;;64.63;28.98;;;;;;;14.94;100.00;101892.72;4854931;29;20124;-62
2023/06/23 01:34:06;;;;;;;68.60;30.13;;;;;;;14.94;100.00;101895.34;4853173;29;20038;-63
2023/06/23 01:36:39;;;;;;;72.60;31.00;;;;;;;14.96;100.00;101891.00;4853725;29;20040;-63
2023/06/23 01:39:08;;;;;;;69.10;30.42;;;;;;;14.99;100.00;101896.38;4854019;29;20077;-63
2023/06/23 01:41:39;;;;;;;;;;;;;;;14.98;100.00;101888.47;4852126;29;20037;-63
2023/06/23 01:44:13;;;;;;;71.55;31.40;;;;;;;14.93;100.00;101890.94;4853806;29;19971;-62
2023/06/23 01:46:41;;;;;;;71.38;32.03;;;;;;;14.88;100.00;101892.59;4853148;29;20034;-63
2023/06/23 01:49:14;;;;;;;79.13;34.55;;;;;;;14.88;100.00;101895.22;4854208;29;20036;-63
2023/06/23 01:51:44;;;;;;;78.35;33.42;;;;;;;14.86;100.00;101899.53;4853751;29;20141;-63
2023/06/23 01:54:12;;;;;;;77.25;33.90;;;;;;;14.84;100.00;101906.50;4852533;29;20071;-62
2023/06/23 01:56:41;;;;;;;78.97;34.17;;;;;;;14.81;100.00;101906.44;4853924;29;20120;-63
2023/06/23 01:59:09;;;;;;;84.07;37.53;;;;;;;14.80;100.00;101908.16;4854271;29;20025;-63
2023/06/23 02:01:36;;;;;;;80.18;35.60;;;;;;;14.81;100.00;101911.69;4853340;29;20422;-62
2023/06/23 02:04:04;;;;;;;79.85;36.08;;;;;;;14.81;100.00;101911.69;4852572;29;20064;-62
2023/06/23 02:06:32;;;;;;;84.55;36.88;;;;;;;14.78;100.00;101907.25;4851003;29;20490;-63
2023/06/23 02:08:59;;;;;;;77.22;36.13;;;;;;;14.77;100.00;101911.63;4854458;29;20057;-62
2023/06/23 02:11:26;;;;;;;83.25;37.00;;;;;;;14.77;100.00;101922.09;4854216;29;20036;-63
2023/06/23 02:13:53;;;;;;;84.70;39.03;;;;;;;14.74;100.00;101929.91;4854130;29;20025;-63
2023/06/23 02:16:20;;;;;;;88.68;38.38;;;;;;;14.75;100.00;101934.28;4851869;29;20049;-63
2023/06/23 02:18:53;;;;;;;81.75;36.92;;;;;;;14.75;100.00;101931.66;4852699;29;20102;-63
2023/06/23 02:21:19;;;;;;;90.55;38.50;;;;;;;14.75;100.00;101936.03;4853216;29;20033;-63
2023/06/23 02:23:45;;;;;;;85.10;39.15;;;;;;;14.74;100.00;101937.78;4854077;29;20029;-63
2023/06/23 02:26:10;;;;;;;88.03;38.92;;;;;;;14.73;100.00;101938.63;4860314;29;20044;-63
2023/06/23 02:28:36;;;;;;;89.25;38.75;;;;;;;14.73;100.00;101945.59;4852615;29;20093;-63
2023/06/23 02:31:02;;;;;;;87.80;38.55;;;;;;;14.72;100.00;101954.31;4853784;29;20089;-63
2023/06/23 02:33:28;;;;;;;87.18;39.08;;;;;;;14.71;100.00;101958.66;4852906;29;20029;-63
2023/06/23 02:35:57;;;;;;;91.03;38.20;;;;;;;14.71;100.00;101968.28;4853577;29;20037;-63
2023/06/23 02:38:24;;;;;;;89.63;40.00;;;;;;;14.73;100.00;101963.94;4852931;29;20049;-63
2023/06/23 02:40:52;;;;;;;86.22;39.28;;;;;;;14.71;100.00;101971.78;4853307;29;20060;-63
2023/06/23 02:43:21;;;;;;;91.38;40.67;;;;;;;14.69;100.00;101972.63;4853526;29;20108;-63
2023/06/23 02:45:50;;;;;;;89.85;40.17;;;;;;;14.66;100.00;101978.69;4852794;29;20064;-63
2023/06/23 02:48:20;;;;;;;95.25;40.38;;;;;;;14.67;100.00;101977.84;4853684;29;20036;-63
2023/06/23 02:50:47;;;;;;;100.30;42.00;;;;;;;14.67;100.00;101982.16;4851308;29;20087;-63
2023/06/23 02:53:19;;;;;;;100.47;41.92;;;;;;;14.65;100.00;101990.00;4853653;29;20038;-63
2023/06/23 02:55:47;;;;;;;100.93;41.20;;;;;;;14.62;100.00;101992.56;4853373;29;20481;-63
2023/06/23 02:58:16;;;;;;;105.90;43.75;;;;;;;14.62;100.00;101996.94;4853752;29;20406;-63
2023/06/23 03:00:42;;;;;;;108.75;44.00;;;;;;;14.59;100.00;101990.69;4851601;29;20029;-63
2023/06/23 03:03:14;;;;;;;103.78;42.40;;;;;;;14.59;100.00;101987.19;4852513;29;20039;-63
2023/06/23 03:05:40;;;;;;;100.75;40.88;;;;;;;14.56;100.00;101995.00;4852810;29;20029;-63
2023/06/23 03:08:06;;;;;;;109.30;44.05;;;;;;;14.52;100.00;101994.00;4852330;29;20397;-63
2023/06/23 03:10:32;;;;;;;104.50;43.45;;;;;;;14.50;100.00;101989.59;4851907;29;20648;-63
2023/06/23 03:12:59;;;;;;;106.55;43.42;;;;;;;14.51;100.00;101996.59;4853764;29;20322;-63
2023/06/23 03:15:25;;;;;;;116.47;45.67;;;;;;;14.50;100.00;101995.72;4852332;29;20037;-63
2023/06/23 03:17:58;;;;;;;112.20;45.35;;;;;;;14.47;100.00;101984.25;4852598;29;20037;-63
2023/06/23 03:20:30;;;;;;;115.05;45.30;;;;;;;14.48;100.00;101999.16;4851557;29;20120;-63
2023/06/23 03:23:10;;;;;;;127.88;44.28;;;;;;;14.47;100.00;101997.34;4866819;29;20032;-63
2023/06/23 03:25:37;;;;;;;117.97;44.97;;;;;;;14.44;100.00;101995.56;4853254;29;20036;-63
2023/06/23 03:28:06;;;;;;;120.15;45.25;;;;;;;14.44;100.00;102001.69;4852187;29;20061;-63
2023/06/23 03:30:45;;;;;;;116.68;45.00;;;;;;;14.45;100.00;102013.06;4851650;29;20103;-63
2023/06/23 03:33:40;;;;;;;123.55;46.75;;;;;;;14.48;100.00;102009.63;4853760;29;20037;-63
2023/06/23 03:36:11;;;;;;;123.78;47.45;;;;;;;14.47;100.00;102003.50;4852688;29;20046;-63
2023/06/23 03:38:43;;;;;;;123.65;46.97;;;;;;;14.44;100.00;102006.94;4852209;29;20053;-63
2023/06/23 03:41:11;;;;;;;130.00;46.60;;;;;;;14.42;100.00;102013.88;4853916;29;20029;-63
2023/06/23 03:43:43;;;;;;;127.78;46.13;;;;;;;14.42;100.00;102015.59;4853916;29;20026;-63
2023/06/23 03:46:20;;;;;;;120.90;44.63;;;;;;;14.40;100.00;102015.56;4853839;29;20053;-63
2023/06/23 03:48:48;;;;;;;122.85;47.03;;;;;;;14.42;100.00;102002.50;4853813;29;20112;-63
2023/06/23 03:51:16;;;;;;;126.57;46.60;;;;;;;14.40;100.00;101999.84;4853464;29;20063;-63
2023/06/23 03:53:44;;;;;;;128.52;47.88;;;;;;;14.40;100.00;102005.06;4852720;29;20033;-63
2023/06/23 03:56:12;;;;;;;135.32;47.60;;;;;;;14.41;100.00;102009.47;4853883;29;20521;-64
2023/06/23 03:58:38;;;;;;;122.18;46.08;;;;;;;14.40;100.00;102015.56;4854058;29;20388;-63
2023/06/23 04:01:05;;;;;;;109.05;42.55;;;;;;;14.43;100.00;102023.50;4851602;29;20068;-63
2023/06/23 04:03:34;;;;;;;123.88;46.60;;;;;;;14.48;100.00;102033.25;4852808;29;20083;-63
2023/06/23 04:06:01;;;;;;;124.75;46.67;;;;;;;14.47;100.00;102031.44;4852136;29;20060;-63
2023/06/23 04:08:30;;;;;;;124.70;44.85;;;;;;;14.50;100.00;102036.81;4852478;29;20026;-63
2023/06/23 04:10:57;;;;;;;;;;;;;;;14.57;100.00;102041.34;4853080;29;20030;-63
2023/06/23 04:13:26;;;;;;;125.05;46.53;;;;;;;14.56;100.00;102040.47;4852885;29;20436;-64
2023/06/23 04:15:55;;;;;;;125.47;47.25;;;;;;;14.58;100.00;102044.03;4852732;29;20180;-63
2023/06/23 04:18:23;;;;;;;140.65;47.88;;;;;;;14.64;100.00;102042.44;4850999;29;20109;-63
2023/06/23 04:20:50;;;;;;;134.40;49.35;;;;;;;14.62;100.00;102047.63;4859998;29;20037;-63
2023/06/23 04:23:18;;;;;;;131.98;49.58;;;;;;;14.63;100.00;102046.81;4852833;29;20089;-63
2023/06/23 04:25:48;;;;;;;147.85;50.67;;;;;;;14.64;100.00;102048.56;4853803;29;20336;-64
2023/06/23 04:28:15;;;;;;;137.70;48.58;;;;;;;14.66;100.00;102048.63;4855474;29;20040;-63
2023/06/23 04:30:42;;;;;;;144.65;50.53;;;;;;;14.66;100.00;102054.75;4855142;29;20556;-64
2023/06/23 04:33:07;;;;;;;153.13;52.80;;;;;;;14.69;100.00;102051.31;4854610;29;20037;-63
2023/06/23 04:35:33;;;;;;;138.48;50.85;;;;;;;14.70;100.00;102054.00;4855699;29;20430;-63
2023/06/23 04:38:12;;;;;;;158.68;53.63;;;;;;;14.73;100.00;102061.94;4856252;29;20116;-63
2023/06/23 04:40:44;;;;;;;;;;;;;;;14.75;100.00;102060.22;4856961;29;20324;-64
2023/06/23 04:43:13;;;;;;;160.13;51.35;;;;;;;14.79;100.00;102066.47;4855538;29;20609;-63
2023/06/23 04:45:51;;;;;;;156.65;54.55;;;;;;;14.81;100.00;102070.00;4855668;29;20443;-63
2023/06/23 04:48:22;;;;;;;176.77;61.28;;;;;;;14.88;100.00;102071.06;4856051;29;20029;-64
2023/06/23 04:50:50;;;;;;;158.80;56.65;;;;;;;14.89;100.00;102078.09;4855686;29;20093;-64
2023/06/23 04:53:19;;;;;;;167.60;59.60;;;;;;;14.89;100.00;102071.09;4855935;29;20128;-64
2023/06/23 04:55:49;;;;;;;158.88;55.75;;;;;;;14.93;100.00;102072.94;4854016;29;20061;-64
2023/06/23 04:58:16;;;;;;;181.27;59.80;;;;;;;15.00;100.00;102076.59;4855402;29;20033;-64
2023/06/23 05:00:44;;;;;;;182.93;59.53;;;;;;;15.03;100.00;102078.41;4856079;29;20165;-64
2023/06/23 05:03:11;;;;;;;176.95;58.63;;;;;;;15.06;100.00;102081.09;4855095;29;20030;-64
2023/06/23 05:05:38;;;;;;;173.13;57.80;;;;;;;15.09;100.00;102089.06;4854713;29;20037;-64
2023/06/23 05:08:05;;;;;;;183.80;60.58;;;;;;;15.14;100.00;102090.06;4855482;29;20029;-64
2023/06/23 05:10:31;;;;;;;176.90;60.22;;;;;;;15.16;100.00;102098.88;4855787;29;20085;-64
2023/06/23 05:13:00;;;;;;;189.43;62.33;;;;;;;15.19;100.00;102106.81;4856048;29;20033;-64
2023/06/23 05:15:26;;;;;;;187.27;64.28;;;;;;;15.24;100.00;102113.06;4855747;29;20308;-64
2023/06/23 05:17:55;;;;;;;200.23;66.78;;;;;;;15.28;100.00;102101.81;4854995;29;20025;-64
2023/06/23 05:20:23;;;;;;;183.23;62.30;;;;;;;15.32;100.00;102113.25;4855598;29;20037;-64
2023/06/23 05:22:51;;;;;;;181.68;62.42;;;;;;;15.34;100.00;102108.94;4856248;29;20064;-64
2023/06/23 05:25:19;;;;;;;193.02;63.72;;;;;;;15.43;100.00;102109.16;4855753;29;20505;-64
2023/06/23 05:27:45;;;;;;;192.57;62.33;;;;;;;15.45;100.00;102112.72;4854999;29;20045;-64
2023/06/23 05:30:17;;;;;;;193.15;62.25;;;;;;;15.51;100.00;102112.00;4853325;29;20078;-64
2023/06/23 05:32:44;;;;;;;182.18;60.05;;;;;;;15.59;100.00;102109.53;4837952;29;20049;-64
2023/06/23 05:35:11;;;;;;;188.43;60.55;;;;;;;15.63;100.00;102111.38;4851290;29;20085;-64
2023/06/23 05:37:39;;;;;;;202.88;66.20;;;;;;;15.66;100.00;102116.69;4855190;29;20029;-64
2023/06/23 05:40:06;;;;;;;194.32;66.47;;;;;;;15.73;100.00;102118.63;4854331;29;20048;-64
2023/06/23 05:42:34;;;;;;;212.15;66.88;;;;;;;15.78;100.00;102116.09;4854434;29;20048;-64
2023/06/23 05:45:01;;;;;;;212.73;68.38;;;;;;;15.80;100.00;102119.66;4853241;29;20481;-64
2023/06/23 05:47:34;;;;;;;213.02;69.13;;;;;;;15.89;100.00;102132.13;4851748;29;20097;-64
2023/06/23 05:50:03;;;;;;;216.00;68.45;;;;;;;15.91;100.00;102135.69;4854065;29;20027;-64
2023/06/23 05:52:31;;;;;;;197.82;62.20;;;;;;;15.96;100.00;102134.03;4855198;29;20056;-63
2023/06/23 05:55:01;;;;;;;215.95;65.53;;;;;;;16.02;100.00;102142.06;4853985;29;20021;-64
2023/06/23 05:57:30;;;;;;;205.93;64.65;;;;;;;16.07;100.00;102129.91;4854451;29;20512;-63
2023/06/23 06:00:18;;;;;;;208.25;60.65;;;;;;;16.14;100.00;102131.81;4853405;29;20123;-64
2023/06/23 06:02:47;;;;;;;191.85;60.00;;;;;;;16.25;100.00;102139.03;4852921;29;20030;-64
2023/06/23 06:05:17;;;;;;;192.80;58.13;;;;;;;16.28;100.00;102141.72;4851674;29;20116;-63
2023/06/23 06:07:44;;;;;;;205.68;59.38;;;;;;;16.38;100.00;102137.53;4852922;29;20509;-64
2023/06/23 06:10:11;;;;;;;198.98;59.53;;;;;;;16.45;100.00;102145.63;4849410;29;20504;-63
2023/06/23 06:12:38;;;;;;;192.75;58.03;;;;;;;16.44;100.00;102150.84;4851773;29;20139;-63
2023/06/23 06:15:06;;;;;;;197.80;59.20;;;;;;;16.50;100.00;102159.72;4854191;29;20048;-63
2023/06/23 06:17:33;;;;;;;195.20;58.40;;;;;;;16.55;100.00;102166.84;4852538;29;20034;-63
2023/06/23 06:20:02;;;;;;;193.73;58.85;;;;;;;16.59;100.00;102166.03;4851105;29;20033;-63
2023/06/23 06:22:31;;;;;;;197.88;60.00;;;;;;;16.65;100.00;102168.78;4852715;29;20026;-63
2023/06/23 06:24:58;;;;;;;188.07;59.67;;;;;;;16.69;100.00;102168.00;4851423;29;20112;-63
2023/06/23 06:27:23;;;;;;;180.55;57.95;;;;;;;16.70;100.00;102161.88;4851571;29;20911;-63
2023/06/23 06:29:51;;;;;;;185.15;57.58;;;;;;;16.76;100.00;102162.00;4852525;29;20029;-63
2023/06/23 06:32:18;;;;;;;189.93;60.65;;;;;;;16.79;100.00;102158.53;4853075;29;20493;-63
2023/06/23 06:34:45;;;;;;;195.88;61.13;;;;;;;16.85;100.00;102159.53;4852505;29;20036;-63
2023/06/23 06:37:11;;;;;;;194.20;59.47;;;;;;;16.97;100.00;102168.56;4853314;29;20030;-63
2023/06/23 06:39:38;;;;;;;193.70;60.78;;;;;;;16.97;100.00;102174.69;4852426;29;20092;-63
2023/06/23 06:42:04;;;;;;;191.90;61.20;;;;;;;17.04;100.00;102179.22;4853684;29;20022;-63
2023/06/23 06:44:30;;;;;;;191.00;60.60;;;;;;;17.12;100.00;102183.72;4853136;29;20442;-63
2023/06/23 06:46:55;;;;;;;196.98;63.90;;;;;;;17.20;100.00;102179.50;4851901;29;20061;-63
2023/06/23 06:49:23;;;;;;;187.90;60.35;;;;;;;17.28;100.00;102183.16;4851731;29;20044;-63
2023/06/23 06:51:50;;;;;;;162.67;55.00;;;;;;;17.29;100.00;102186.66;4851211;29;20029;-63
2023/06/23 06:54:16;;;;;;;177.52;56.22;;;;;;;17.27;100.00;102188.41;4851793;29;20493;-63
2023/06/23 06:56:43;;;;;;;176.68;57.80;;;;;;;17.31;100.00;102192.88;4853728;29;20068;-62
2023/06/23 06:59:08;;;;;;;169.15;56.08;;;;;;;17.36;100.00;102199.09;4853526;29;20090;-63
2023/06/23 07:01:35;;;;;;;156.50;53.42;;;;;;;17.44;100.00;102207.13;4853056;29;20025;-62
2023/06/23 07:04:02;;;;;;;154.77;52.90;;;;;;;17.48;100.00;102201.94;4853434;29;20037;-63
2023/06/23 07:06:28;;;;;;;162.70;53.08;;;;;;;17.58;100.00;102199.44;4853687;29;20121;-63
2023/06/23 07:08:53;;;;;;;161.38;54.03;;;;;;;17.69;100.00;102201.41;4853490;29;20116;-63
2023/06/23 07:11:19;;;;;;;153.35;54.60;;;;;;;17.76;100.00;102207.66;4853489;29;20040;-63
2023/06/23 07:13:44;;;;;;;168.05;55.15;;;;;;;17.87;100.00;102214.00;4852038;29;20059;-62
2023/06/23 07:16:10;;;;;;;167.23;57.05;;;;;;;17.99;100.00;102218.59;4851857;29;20100;-63
2023/06/23 07:18:35;;;;;;;173.07;60.60;;;;;;;18.10;100.00;102216.09;4850526;29;20477;-63
2023/06/23 07:21:03;;;;;;;155.13;55.03;;;;;;;18.19;100.00;102215.34;4851812;29;20555;-62
2023/06/23 07:23:28;;;;;;;154.48;54.03;;;;;;;18.30;100.00;102215.50;4851915;29;20386;-63
2023/06/23 07:25:53;;;;;;;155.23;55.83;;;;;;;18.36;100.00;102224.38;4850141;29;20756;-63
2023/06/23 07:28:20;;;;;;;134.95;48.63;;;;;;;18.46;100.00;102222.75;4851197;29;20072;-62
2023/06/23 07:30:45;;;;;;;128.65;48.30;;;;;;;18.51;100.00;102228.09;4850946;29;20114;-62
2023/06/23 07:33:10;;;;;;;136.32;50.53;;;;;;;18.56;100.00;102227.28;4853458;29;20033;-62
2023/06/23 07:35:36;;;;;;;131.30;50.55;;;;;;;18.62;100.00;102222.97;4851376;29;20068;-62
2023/06/23 07:38:01;;;;;;;129.05;50.72;;;;;;;18.68;100.00;102223.03;4852267;29;20514;-62
2023/06/23 07:40:27;;;;;;;135.07;51.03;;;;;;;18.70;100.00;102222.19;4850770;29;20037;-63
2023/06/23 07:42:52;;;;;;;127.88;50.55;;;;;;;18.83;100.00;102220.56;4851298;29;20045;-62
2023/06/23 07:45:17;;;;;;;124.05;48.25;;;;;;;18.88;100.00;102228.56;4851673;29;20068;-63
2023/06/23 07:47:42;;;;;;;117.28;47.78;;;;;;;18.97;100.00;102235.72;4853384;29;20033;-62
2023/06/23 07:50:08;;;;;;;124.97;47.40;;;;;;;19.07;100.00;102229.66;4850762;29;20108;-62
2023/06/23 07:52:33;;;;;;;117.60;47.38;;;;;;;19.14;100.00;102239.41;4846557;29;20040;-62
2023/06/23 07:54:59;;;;;;;123.38;49.55;;;;;;;19.18;100.00;102230.66;4849708;29;20061;-62
2023/06/23 07:57:25;;;;;;;121.80;47.42;;;;;;;19.29;100.00;102230.75;4850814;29;20036;-62
2023/06/23 07:59:50;;;;;;;114.97;44.47;;;;;;;19.37;100.00;102234.38;4856061;29;20382;-62
2023/06/23 08:02:15;;;;;;;90.65;36.53;;;;;;;19.50;100.00;102240.66;4855991;29;20029;-62
2023/06/23 08:04:41;;;;;;;89.15;38.67;;;;;;;19.55;100.00;102238.94;4853239;29;20032;-62
2023/06/23 08:07:06;;;;;;;85.95;38.03;;;;;;;19.63;100.00;102242.53;4852749;29;20711;-64
2023/06/23 08:09:31;;;;;;;98.65;40.08;;;;;;;19.71;100.00;102233.75;4856111;29;20077;-63
2023/06/23 08:11:56;;;;;;;98.20;41.17;;;;;;;19.79;100.00;102245.34;4854684;29;21438;-63
2023/06/23 08:14:22;;;;;;;88.93;37.13;;;;;;;19.90;99.52;102246.31;4855007;29;20037;-64
2023/06/23 08:16:48;;;;;;;91.72;38.22;;;;;;;20.02;100.00;102234.91;4852340;29;20078;-64
2023/06/23 08:19:13;;;;;;;81.50;34.17;;;;;;;20.11;99.87;102242.03;4853852;29;20036;-62
2023/06/23 08:21:38;;;;;;;76.82;35.05;;;;;;;20.16;97.48;102245.59;4854694;29;20068;-63
2023/06/23 08:24:04;;;;;;;83.32;37.63;;;;;;;20.25;99.09;102247.41;4854766;29;20044;-62
2023/06/23 08:26:29;;;;;;;72.57;33.28;;;;;;;20.30;91.64;102251.84;4854477;29;20029;-62
2023/06/23 08:28:55;;;;;;;78.53;33.50;;;;;;;20.30;96.31;102248.31;4852382;29;20493;-63
2023/06/23 08:31:20;;;;;;;66.30;28.77;;;;;;;20.38;93.83;102251.00;4851529;29;20037;-62
2023/06/23 08:33:45;;;;;;;62.00;29.35;;;;;;;20.46;95.60;102251.94;4854224;29;20068;-63
2023/06/23 08:36:11;;;;;;;57.83;27.55;;;;;;;20.61;95.61;102253.75;4854456;29;20439;-62
2023/06/23 08:38:36;;;;;;;74.20;33.80;;;;;;;20.72;92.30;102245.91;4853726;29;20057;-62
2023/06/23 08:41:04;;;;;;;76.30;34.25;;;;;;;20.83;93.57;102252.13;4854654;29;20029;-63
2023/06/23 08:43:34;;;;;;;72.95;36.17;;;;;;;20.98;92.15;102253.94;4851937;29;20078;-62
2023/06/23 08:45:59;;;;;;;79.93;34.45;;;;;;;21.12;92.50;102260.16;4853550;29;20212;-62
2023/06/23 08:48:27;;;;;;;74.25;35.63;;;;;;;21.17;89.22;102260.16;4854071;29;20033;-62
2023/06/23 08:50:55;;;;;;;68.85;33.45;;;;;;;21.27;89.18;102269.91;4853968;29;20059;-62
2023/06/23 08:53:23;;;;;;;67.75;34.13;;;;;;;21.29;89.10;102276.09;4852734;29;20029;-62
2023/06/23 08:55:49;;;;;;;72.45;33.40;;;;;;;21.32;88.54;102277.84;4854710;29;20465;-62
2023/06/23 08:58:16;;;;;;;62.30;30.73;;;;;;;21.31;84.77;102281.41;4853811;29;20059;-62
2023/06/23 09:00:41;;;;;;;62.35;29.52;;;;;;;21.34;80.38;102278.75;4852086;29;20117;-63
2023/06/23 09:03:06;;;;;;;60.70;28.48;;;;;;;21.35;80.86;102281.41;4854405;29;20116;-63
2023/06/23 09:05:32;;;;;;;55.13;28.55;;;;;;;21.31;82.78;102287.59;4852613;29;20036;-63
2023/06/23 09:07:57;;;;;;;45.35;22.88;;;;;;;21.40;81.54;102284.06;4853715;29;20104;-63
2023/06/23 09:13:07;;;;;;;51.85;27.70;;;;;;;21.71;87.14;102292.97;4885180;23;20065;-64
2023/06/23 09:15:33;;;;;;;38.05;19.55;;;;;;;21.80;80.25;102294.75;4923936;23;20217;-63
2023/06/23 09:18:01;;;;;;;46.72;26.13;;;;;;;21.95;84.18;102293.84;5101366;23;20713;-63
2023/06/23 09:20:29;;;;;;;42.35;22.58;;;;;;;22.11;85.53;102294.72;5052648;23;20057;-63
2023/06/23 09:28:05;;;;;;;39.55;23.27;;;;;;;22.58;81.88;102298.22;5012841;23;20053;-64
2023/06/23 09:30:35;;;;;;;41.47;22.42;;;;;;;22.52;78.81;102298.19;4861211;29;20131;-64
2023/06/23 09:33:04;;;;;;;40.35;21.27;;;;;;;22.37;78.36;102305.31;4860434;29;20045;-64
2023/06/23 09:35:30;;;;;;;34.38;19.23;;;;;;;22.36;76.23;102308.88;5095007;23;20199;-64
2023/06/23 09:37:55;;;;;;;37.45;19.65;;;;;;;22.54;80.62;102315.91;4861971;29;20513;-65
2023/06/23 09:40:36;;;;;;;;;;;;;;;;;;;;;
2023/06/23 09:43:11;;;;;;;32.70;17.52;;;;;;;22.77;77.14;102311.41;4858219;29;20029;-95
2023/06/23 09:49:06;;;;;;;34.22;18.33;;;;;;;23.07;78.17;102313.03;5050269;23;20061;-66
2023/06/23 09:56:29;;;;;;;35.90;19.80;;;;;;;23.20;72.77;102316.56;5037943;23;20069;-61
2023/06/23 09:58:54;;;;;;;30.15;17.95;;;;;;;23.20;75.04;102322.78;4857205;29;20068;-63
2023/06/23 10:01:20;;;;;;;31.15;16.60;;;;;;;23.23;71.46;102313.88;4858181;29;20675;-62
2023/06/23 10:03:50;;;;;;;28.27;16.52;;;;;;;23.37;71.23;102320.00;4861898;29;20037;-63
2023/06/23 10:06:28;;;;;;;34.60;18.67;;;;;;;23.61;73.39;102307.44;4860074;29;20060;-59
2023/06/23 10:08:58;;;;;;;27.27;15.50;;;;;;;23.83;73.50;102309.94;4861696;29;20408;-59
2023/06/23 10:11:32;;;;;;;29.92;16.70;;;;;;;23.90;68.62;102311.69;4860679;29;20037;-60
2023/06/23 10:14:01;;;;;;;26.88;14.70;;;;;;;23.90;69.22;102314.34;4858173;29;20387;-60
2023/06/23 10:16:27;;;;;;;;;;;;;;;23.99;71.53;102316.91;4861001;29;20100;-60
2023/06/23 10:18:53;;;;;;;25.88;12.93;;;;;;;23.98;71.75;102304.47;4854197;29;20308;-61
2023/06/23 10:21:19;;;;;;;23.23;12.40;;;;;;;24.00;68.48;102304.47;4852044;29;20030;-60
2023/06/23 10:23:47;;;;;;;23.52;12.30;;;;;;;24.19;74.06;102302.50;4859824;29;20072;-60
2023/06/23 10:31:17;;;;;;;25.85;14.90;;;;;;;24.05;65.88;102311.53;5181221;23;20047;-62
2023/06/23 10:33:43;;;;;;;24.70;13.15;;;;;;;24.01;68.33;102314.22;5222892;23;20108;-62
2023/06/23 10:36:14;;;;;;;21.33;12.43;;;;;;;24.10;68.55;102312.38;4953103;23;20060;-61
2023/06/23 10:38:43;;;;;;;19.52;11.57;;;;;;;24.33;71.46;102310.38;5005098;23;20024;-60
2023/06/23 10:41:10;;;;;;;22.58;11.93;;;;;;;24.57;68.84;102319.88;4959447;23;20902;-60
2023/06/23 10:43:39;;;;;;;20.15;11.02;;;;;;;24.68;67.52;102317.13;4847213;29;20676;-60
2023/06/23 10:46:05;;;;;;;18.10;11.40;;;;;;;24.63;62.99;102314.50;5114304;23;20065;-60
2023/06/23 10:48:31;;;;;;;19.95;12.18;;;;;;;24.65;68.25;102324.25;4947422;23;20062;-59
2023/06/23 10:51:05;;;;;;;18.75;10.93;;;;;;;24.58;70.33;102319.88;4905768;23;20057;-96
2023/06/23 10:53:32;;;;;;;19.20;10.88;;;;;;;24.62;65.91;102318.06;4902717;23;20049;-60
2023/06/23 11:01:15;;;;;;;18.17;10.18;;;;;;;24.94;65.38;102323.03;5212328;23;20214;-61
2023/06/23 11:03:41;;;;;;;15.93;10.35;;;;;;;24.72;64.37;102322.38;4990890;23;1080230;-60
2023/06/23 11:06:10;;;;;;;19.33;10.90;;;;;;;24.83;64.30;102323.13;5032554;23;20067;-60
2023/06/23 11:08:38;;;;;;;19.42;10.77;;;;;;;24.78;62.72;102325.00;4850458;29;20060;-60
2023/06/23 11:11:05;;;;;;;17.55;9.85;;;;;;;24.80;64.04;102331.19;4847985;29;20300;-60
2023/06/23 11:15:58;;;;;;;18.25;10.85;;;;;;;24.74;59.94;102333.94;5094595;23;20049;-96
2023/06/23 11:18:26;;;;;;;18.70;11.55;;;;;;;24.89;64.01;102338.19;4980563;23;20100;-60
2023/06/23 11:25:52;;;;;;;17.88;9.05;;;;;;;25.32;59.84;102334.97;5033944;23;20856;-60
2023/06/23 11:28:36;;;;;;;15.32;9.05;;;;;;;25.48;60.30;102330.28;5068343;23;20053;-61
2023/06/23 11:31:17;;;;;;;18.27;9.00;;;;;;;25.67;61.69;102333.56;5214058;23;20024;-63
2023/06/23 11:36:16;;;;;;;18.00;10.80;;;;;;;26.01;58.05;102334.81;5099672;23;20118;-63
2023/06/23 11:38:43;;;;;;;16.33;10.77;;;;;;;26.14;60.00;102341.72;4951018;23;20065;-60
2023/06/23 11:43:38;;;;;;;17.77;11.13;;;;;;;25.56;59.20;102335.50;5026503;23;20057;-61
2023/06/23 11:48:39;;;;;;;17.77;11.35;;;;;;;25.26;59.68;102331.47;5028707;23;20049;-61